Two Buttes, Colorado
Current Conditions -  °F | °C
As of 6:53 AM on Saturday 20 Dec 2014 (Local Time) from KLAA Reporting Station
Clear Clear  
Wind Chill: 10°   Ceiling: Unl
Heat Index: 20°   Visibility: 10mi
Dew Point: 18°   Wind: 8mph
Humidity: 92%   Direction: 230°SW
Pressure: 30.05"   Gusts: NA
Location:  37.56°N, 102.4°W
Report Text: KLAA 201353Z AUTO 23007KT 10SM CLR M07/M08 A3005 RMK AO2 SLP205 T10671078
Loading
Personal Weather Stations






























Interactive Weather Map New forecast layout! Learn more

10-Day Weather Forecast

Advertisements
Track Severe Weather on mobile